createdAt,value
2024-02-14T00:01:30.245Z,9.53
2024-02-14T00:06:37.749Z,8.87
2024-02-14T00:11:43.157Z,8.97
2024-02-14T00:16:46.617Z,13.10
2024-02-14T00:22:26.561Z,8.97
2024-02-14T00:29:05.714Z,13.17
2024-02-14T00:34:11.434Z,4.83
2024-02-14T00:39:14.950Z,11.83
2024-02-14T00:44:20.299Z,8.57
2024-02-14T00:49:29.566Z,13.40
2024-02-14T00:54:47.175Z,8.53
2024-02-14T00:59:59.497Z,12.20
2024-02-14T01:11:50.711Z,8.53
2024-02-14T01:17:19.108Z,14.07
2024-02-14T01:22:29.779Z,10.87
2024-02-14T01:27:32.925Z,19.57
2024-02-14T01:32:36.227Z,8.53
2024-02-14T01:37:39.613Z,11.23
2024-02-14T01:42:43.461Z,15.77
2024-02-14T01:47:47.183Z,9.37
2024-02-14T01:52:50.412Z,19.93
2024-02-14T01:57:54.537Z,12.17
2024-02-14T02:02:58.898Z,14.77
2024-02-14T02:08:02.661Z,14.00
2024-02-14T02:13:06.229Z,8.50
2024-02-14T02:18:24.982Z,10.00
2024-02-14T02:24:26.307Z,11.10
2024-02-14T02:30:50.197Z,16.30
2024-02-14T02:44:09.559Z,14.53
2024-02-14T02:49:15.456Z,13.63
2024-02-14T02:54:18.743Z,11.27
2024-02-14T02:59:23.404Z,13.57
2024-02-14T03:04:41.226Z,8.50
2024-02-14T03:09:50.444Z,15.00
2024-02-14T03:22:08.017Z,15.70
2024-02-14T03:27:11.233Z,14.87
2024-02-14T03:32:14.861Z,7.27
2024-02-14T03:37:18.883Z,9.07
2024-02-14T03:42:22.133Z,5.20
2024-02-14T03:47:25.904Z,14.27
2024-02-14T03:52:29.089Z,12.27
2024-02-14T03:57:32.159Z,10.17
2024-02-14T04:02:37.517Z,8.23
2024-02-14T04:07:45.820Z,5.77
2024-02-14T04:12:49.122Z,10.90
2024-02-14T04:17:52.286Z,14.30
2024-02-14T04:22:55.336Z,21.73
2024-02-14T04:27:58.064Z,28.27
2024-02-14T04:33:01.718Z,17.57
2024-02-14T04:38:04.707Z,17.70
2024-02-14T04:43:07.491Z,15.37
2024-02-14T04:48:10.426Z,15.63
2024-02-14T04:53:13.237Z,21.43
2024-02-14T04:58:16.293Z,12.27
2024-02-14T05:03:19.820Z,16.67
2024-02-14T05:08:23.301Z,12.70
2024-02-14T05:13:26.602Z,13.13
2024-02-14T05:18:29.630Z,14.40
2024-02-14T05:23:32.913Z,14.97
2024-02-14T05:28:36.028Z,13.20
2024-02-14T05:33:39.332Z,14.87
2024-02-14T05:38:42.416Z,19.67
2024-02-14T05:43:45.233Z,14.53
2024-02-14T05:48:49.734Z,17.73
2024-02-14T05:53:52.679Z,17.17
2024-02-14T05:58:55.691Z,12.13
2024-02-14T06:03:58.739Z,9.97
2024-02-14T06:09:01.988Z,10.40
2024-02-14T06:14:04.930Z,12.40
2024-02-14T06:19:08.302Z,8.77
2024-02-14T06:24:14.939Z,9.03
2024-02-14T06:29:18.385Z,7.37
2024-02-14T06:34:21.506Z,5.03
2024-02-14T06:39:24.782Z,6.10
2024-02-14T06:44:27.969Z,7.40
2024-02-14T06:49:31.175Z,8.37
2024-02-14T06:54:34.835Z,14.90
2024-02-14T06:59:39.469Z,12.00
2024-02-14T07:04:42.978Z,13.27
2024-02-14T07:09:46.523Z,10.07
2024-02-14T07:14:49.946Z,44.40
2024-02-14T07:19:53.305Z,28.30
2024-02-14T07:24:56.514Z,27.90
2024-02-14T07:30:00.019Z,22.93
2024-02-14T07:35:04.320Z,13.40
2024-02-14T07:40:08.920Z,14.80
2024-02-14T07:45:13.323Z,13.37
2024-02-14T07:50:17.349Z,16.80
2024-02-14T07:55:21.722Z,21.07
2024-02-14T08:00:25.253Z,19.60
2024-02-14T08:05:28.942Z,17.30
2024-02-14T08:10:33.095Z,16.00
2024-02-14T08:15:39.045Z,22.40
2024-02-14T08:20:43.666Z,20.10
2024-02-14T08:25:48.116Z,19.03
2024-02-14T08:30:53.318Z,27.17
2024-02-14T08:35:59.128Z,26.30
2024-02-14T08:41:06.523Z,23.53
2024-02-14T08:46:13.849Z,21.60
2024-02-14T08:51:18.608Z,22.73
2024-02-14T08:56:23.885Z,24.40
2024-02-14T09:01:28.079Z,23.53
2024-02-14T09:06:34.210Z,26.87
2024-02-14T09:11:39.919Z,27.10
2024-02-14T09:16:43.509Z,21.80
2024-02-14T09:21:46.884Z,21.57
2024-02-14T09:26:50.478Z,22.07
2024-02-14T09:31:54.527Z,21.13
2024-02-14T09:36:59.961Z,20.97
2024-02-14T09:42:09.044Z,26.43
2024-02-14T09:47:12.857Z,20.80
2024-02-14T09:52:17.221Z,20.33
2024-02-14T09:57:21.078Z,20.50
2024-02-14T10:02:24.379Z,28.47
2024-02-14T10:07:28.076Z,28.93
2024-02-14T10:12:31.454Z,20.37
2024-02-14T10:17:35.954Z,13.33
2024-02-14T10:22:40.181Z,17.53
2024-02-14T10:27:44.045Z,15.50
2024-02-14T10:32:50.078Z,14.33
2024-02-14T10:37:54.572Z,15.50
2024-02-14T10:42:59.803Z,16.90
2024-02-14T10:48:05.739Z,17.37
2024-02-14T10:53:14.483Z,14.43
2024-02-14T10:58:20.790Z,12.40
2024-02-14T11:03:24.890Z,12.20
2024-02-14T11:08:33.719Z,13.67
2024-02-14T11:13:37.283Z,13.90
2024-02-14T11:18:41.209Z,16.60
2024-02-14T11:23:55.665Z,18.30
2024-02-14T11:29:05.410Z,12.60
2024-02-14T11:34:10.483Z,18.03
2024-02-14T11:39:19.820Z,11.73
2024-02-14T11:44:27.409Z,14.70
2024-02-14T11:49:30.904Z,13.17
2024-02-14T11:54:34.716Z,11.73
2024-02-14T11:59:37.844Z,11.80
2024-02-14T12:04:41.565Z,9.87
2024-02-14T12:09:45.165Z,7.10
2024-02-14T12:14:51.047Z,11.50
2024-02-14T12:19:54.749Z,11.33
2024-02-14T12:24:59.159Z,8.77
2024-02-14T12:30:08.566Z,11.03
2024-02-14T12:35:12.683Z,11.97
2024-02-14T12:40:16.175Z,11.03
2024-02-14T12:45:20.567Z,11.50
2024-02-14T12:50:24.311Z,9.70
2024-02-14T12:55:29.896Z,12.33
2024-02-14T13:00:34.063Z,16.23
2024-02-14T13:05:37.620Z,15.00
2024-02-14T13:10:41.124Z,17.60
2024-02-14T13:15:46.429Z,11.17
2024-02-14T13:20:51.990Z,13.53
2024-02-14T13:25:55.602Z,9.47
2024-02-14T13:30:58.732Z,8.80
2024-02-14T13:36:02.075Z,11.53
2024-02-14T13:41:05.617Z,13.93
2024-02-14T13:46:10.753Z,14.93
2024-02-14T13:51:13.879Z,14.07
2024-02-14T13:56:22.842Z,10.97
2024-02-14T14:01:28.005Z,14.93
2024-02-14T14:06:32.034Z,10.60
2024-02-14T14:11:35.550Z,10.03
2024-02-14T14:16:38.697Z,13.60
2024-02-14T14:21:42.108Z,15.10
2024-02-14T14:26:45.296Z,16.47
2024-02-14T14:31:48.489Z,12.50
2024-02-14T14:36:51.522Z,12.50
2024-02-14T14:41:58.570Z,16.00
2024-02-14T14:47:02.246Z,31.17
2024-02-14T14:52:06.095Z,35.97
2024-02-14T14:57:15.746Z,31.33
2024-02-14T15:02:19.427Z,29.47
2024-02-14T15:07:22.617Z,27.80
2024-02-14T15:12:28.284Z,23.30
2024-02-14T15:17:31.875Z,26.67
2024-02-14T15:22:35.416Z,29.20
2024-02-14T15:27:45.469Z,28.50
2024-02-14T15:33:07.488Z,44.40
2024-02-14T15:38:10.774Z,30.73
2024-02-14T15:43:14.533Z,25.93
2024-02-14T15:48:17.890Z,25.30
2024-02-14T15:53:21.958Z,20.10
2024-02-14T15:58:27.786Z,17.70
2024-02-14T16:03:31.375Z,17.73
2024-02-14T16:08:34.908Z,20.93
2024-02-14T16:13:38.113Z,12.93
2024-02-14T16:18:41.789Z,13.03
2024-02-14T16:23:45.474Z,19.50
2024-02-14T16:28:49.123Z,26.37
2024-02-14T16:33:52.905Z,33.50
2024-02-14T16:38:56.304Z,24.53
2024-02-14T16:43:59.536Z,18.70
2024-02-14T16:49:04.938Z,16.67
2024-02-14T16:54:08.127Z,14.53
2024-02-14T16:59:12.042Z,12.13
2024-02-14T17:04:15.222Z,11.93
2024-02-14T17:09:19.070Z,17.17
2024-02-14T17:14:27.860Z,14.80
2024-02-14T17:19:31.069Z,13.60
2024-02-14T17:24:34.369Z,16.47
2024-02-14T17:29:38.104Z,14.40
2024-02-14T17:34:42.682Z,12.20
2024-02-14T17:39:46.125Z,13.90
2024-02-14T17:44:50.495Z,18.97
2024-02-14T17:49:57.280Z,18.93
2024-02-14T17:55:03.178Z,15.87
2024-02-14T18:00:07.983Z,11.97
2024-02-14T18:05:12.029Z,9.93
2024-02-14T18:10:16.056Z,9.47
2024-02-14T18:15:20.045Z,12.17
2024-02-14T18:20:23.400Z,13.63
2024-02-14T18:25:26.611Z,13.17
2024-02-14T18:30:34.505Z,15.00
2024-02-14T18:35:39.153Z,16.13
2024-02-14T18:40:43.164Z,15.47
2024-02-14T18:45:46.578Z,18.43
2024-02-14T18:50:49.849Z,17.83
2024-02-14T18:55:53.354Z,14.87
2024-02-14T19:00:57.203Z,11.77
2024-02-14T19:06:01.085Z,17.20
2024-02-14T19:11:05.942Z,24.07
2024-02-14T19:16:16.664Z,17.83
2024-02-14T19:21:28.654Z,19.20
2024-02-14T19:26:32.851Z,38.67
2024-02-14T19:31:36.902Z,41.30
2024-02-14T19:36:41.481Z,27.17
2024-02-14T19:41:46.709Z,43.43
2024-02-14T19:46:52.329Z,37.50
2024-02-14T19:51:56.784Z,43.40
2024-02-14T19:57:01.170Z,26.77
2024-02-14T20:02:05.763Z,23.73
2024-02-14T20:07:10.213Z,32.33
2024-02-14T20:12:14.112Z,15.17
2024-02-14T20:17:18.292Z,22.77
2024-02-14T20:22:24.839Z,17.77
2024-02-14T20:27:29.417Z,19.43
2024-02-14T20:32:34.454Z,19.30
2024-02-14T20:37:40.572Z,20.87
2024-02-14T20:42:45.543Z,30.17
2024-02-14T20:47:50.163Z,19.50
2024-02-14T20:52:55.780Z,15.30
2024-02-14T20:58:00.513Z,26.20
2024-02-14T21:03:05.646Z,17.70
2024-02-14T21:08:10.523Z,17.73
2024-02-14T21:13:17.912Z,20.73
2024-02-14T21:18:22.320Z,19.83
2024-02-14T21:23:26.288Z,14.83
2024-02-14T21:28:30.238Z,15.30
2024-02-14T21:33:37.481Z,17.27
2024-02-14T21:38:43.085Z,15.80
2024-02-14T21:43:46.434Z,14.47
2024-02-14T21:48:53.444Z,16.13
2024-02-14T21:53:57.206Z,13.97
2024-02-14T21:59:04.074Z,16.87
2024-02-14T22:04:07.409Z,19.93
2024-02-14T22:09:11.150Z,14.13
2024-02-14T22:14:14.516Z,19.43
2024-02-14T22:19:17.781Z,17.83
2024-02-14T22:24:22.010Z,19.07
2024-02-14T22:29:25.699Z,21.47
2024-02-14T22:34:28.827Z,16.90
2024-02-14T22:39:32.061Z,18.77
2024-02-14T22:44:38.128Z,22.03
2024-02-14T22:49:44.153Z,23.30
2024-02-14T22:54:47.391Z,18.53
2024-02-14T22:59:50.588Z,24.63
2024-02-14T23:04:53.931Z,22.77
2024-02-14T23:09:57.732Z,19.90
2024-02-14T23:15:01.386Z,20.07
2024-02-14T23:20:07.831Z,22.60
2024-02-14T23:25:14.097Z,28.90
2024-02-14T23:30:19.324Z,28.17
2024-02-14T23:35:23.807Z,24.03
2024-02-14T23:40:26.893Z,28.10
2024-02-14T23:45:29.918Z,21.10
2024-02-14T23:50:32.981Z,28.10
2024-02-14T23:55:37.865Z,28.57
